Time;durP1;ratioP1;P1;durP2;ratioP2;P2;SDS_P1;SDS_P2;PMS_P1;PMS_P2;Temp;Humidity;BMP_temperature;BMP_pressure;BME280_temperature;BME280_humidity;BME280_pressure;Samples;Min_cycle;Max_cycle;Signal;HPM_P1;HPM_P2
2023/11/15 00:01:08;;;;;;;15.90;11.70;;;;;;;7.46;100.00;96608.41;110359;1242;58889;-65
2023/11/15 00:03:49;;;;;;;;;;;;;;;7.49;100.00;96598.41;110480;1241;70933;-64
2023/11/15 00:06:20;;;;;;;23.90;14.80;;;;;;;7.56;100.00;96598.49;110369;1249;69084;-66
2023/11/15 00:08:52;;;;;;;25.00;16.80;;;;;;;7.54;100.00;96597.52;110536;1240;68473;-66
2023/11/15 00:11:22;;;;;;;;;;;;;;;7.57;100.00;96600.79;110503;1242;58930;-64
2023/11/15 00:13:53;;;;;;;18.60;12.20;;;;;;;7.59;100.00;96606.01;110560;1242;58875;-64
2023/11/15 00:16:24;;;;;;;14.80;10.80;;;;;;;7.61;100.00;96606.02;110500;1242;70565;-66
2023/11/15 00:18:56;;;;;;;16.70;12.00;;;;;;;7.61;100.00;96602.19;110431;1242;69060;-63
2023/11/15 00:21:28;;;;;;;13.90;11.00;;;;;;;7.67;100.00;96600.42;110388;1241;69677;-65
2023/11/15 00:23:59;;;;;;;17.90;11.60;;;;;;;7.71;100.00;96598.54;110485;1241;58905;-65
2023/11/15 00:26:31;;;;;;;20.10;13.60;;;;;;;7.75;100.00;96590.83;110477;1241;58867;-64
2023/11/15 00:29:04;;;;;;;18.50;13.10;;;;;;;7.78;100.00;96585.04;110359;1242;70572;-65
2023/11/15 00:31:48;;;;;;;16.80;12.00;;;;;;;7.80;100.00;96578.59;110347;1242;69071;-65
2023/11/15 00:34:18;;;;;;;;;;;;;;;7.85;100.00;96573.95;110200;1245;69301;-66
2023/11/15 00:36:50;;;;;;;11.30;8.90;;;;;;;7.86;100.00;96576.80;110438;1242;58875;-66
2023/11/15 00:39:21;;;;;;;14.20;10.10;;;;;;;7.86;100.00;96583.88;110196;1244;58848;-65
2023/11/15 00:41:54;;;;;;;17.50;11.10;;;;;;;7.82;100.00;96576.38;110505;1242;69893;-65
2023/11/15 00:44:28;;;;;;;16.70;12.40;;;;;;;7.85;100.00;96581.55;110513;1241;69363;-65
2023/11/15 00:46:58;;;;;;;20.70;13.30;;;;;;;7.84;100.00;96576.39;110485;1239;69431;-65
2023/11/15 00:49:30;;;;;;;16.80;12.10;;;;;;;7.86;100.00;96575.80;110368;1242;58860;-65
2023/11/15 00:52:01;;;;;;;15.70;11.10;;;;;;;7.87;100.00;96579.99;110387;1242;58844;-65
2023/11/15 00:54:33;;;;;;;12.90;9.80;;;;;;;7.91;100.00;96584.03;110484;1240;70745;-65
2023/11/15 00:57:04;;;;;;;19.40;14.30;;;;;;;7.89;100.00;96573.06;110340;1242;69332;-64
2023/11/15 00:59:44;;;;;;;22.10;15.20;;;;;;;7.87;100.00;96570.27;110293;1249;69242;-64
2023/11/15 01:02:21;;;;;;;22.30;16.20;;;;;;;7.85;100.00;96561.94;110380;1240;58908;-64
2023/11/15 01:04:55;;;;;;;21.70;16.20;;;;;;;7.87;100.00;96556.97;110130;1244;58954;-64
2023/11/15 01:07:25;;;;;;;19.90;14.90;;;;;;;7.86;100.00;96551.45;110328;1242;70496;-64
2023/11/15 01:09:58;;;;;;;18.80;14.30;;;;;;;7.84;100.00;96551.77;110295;1241;68530;-64
2023/11/15 01:12:29;;;;;;;17.90;14.60;;;;;;;7.81;100.00;96547.67;110145;1242;69103;-64
2023/11/15 01:15:00;;;;;;;14.70;10.50;;;;;;;7.81;100.00;96544.21;110392;1242;58938;-65
2023/11/15 01:17:33;;;;;;;12.70;9.80;;;;;;;7.81;100.00;96541.61;110165;1245;58858;-66
2023/11/15 01:20:08;;;;;;;12.10;9.10;;;;;;;7.81;100.00;96541.11;110407;1242;69965;-64
2023/11/15 01:22:39;;;;;;;11.30;8.20;;;;;;;7.80;100.00;96548.14;110181;1244;68617;-64
2023/11/15 01:25:09;;;;;;;8.90;7.40;;;;;;;7.80;100.00;96550.71;110347;1241;69283;-64
2023/11/15 01:27:41;;;;;;;9.40;6.50;;;;;;;7.80;100.00;96548.13;110465;1241;58910;-66
2023/11/15 01:30:12;;;;;;;7.60;5.10;;;;;;;7.77;100.00;96541.72;110536;1240;58873;-65
2023/11/15 01:32:43;;;;;;;6.80;4.70;;;;;;;7.78;100.00;96539.20;110513;1242;69636;-66
2023/11/15 01:35:16;;;;;;;6.30;4.50;;;;;;;7.72;100.00;96540.23;110179;1245;69851;-66
2023/11/15 01:37:50;;;;;;;7.10;5.00;;;;;;;7.75;100.00;96537.37;110431;1242;68552;-65
2023/11/15 01:40:23;;;;;;;5.00;3.90;;;;;;;7.78;100.00;96534.19;110241;1242;59266;-65
2023/11/15 01:42:58;;;;;;;6.70;4.80;;;;;;;7.79;100.00;96521.15;110225;1244;58879;-65
2023/11/15 01:45:31;;;;;;;6.90;4.80;;;;;;;7.76;100.00;96514.24;110444;1242;69659;-64
2023/11/15 01:48:00;;;;;;;7.10;4.20;;;;;;;7.73;100.00;96509.83;110524;1242;70275;-64
2023/11/15 01:50:33;;;;;;;5.90;3.60;;;;;;;7.70;100.00;96512.59;110326;1242;69332;-64
2023/11/15 01:53:03;;;;;;;5.00;3.90;;;;;;;7.72;100.00;96508.11;110458;1242;58830;-64
2023/11/15 01:55:34;;;;;;;4.70;3.10;;;;;;;7.72;100.00;96497.39;110380;1242;58898;-64
2023/11/15 01:58:06;;;;;;;4.50;2.90;;;;;;;7.70;100.00;96481.90;110175;1241;70387;-66
2023/11/15 02:00:37;;;;;;;4.20;3.00;;;;;;;7.68;100.00;96479.28;110186;1240;68594;-65
2023/11/15 02:03:07;;;;;;;3.40;2.30;;;;;;;7.67;100.00;96478.84;110515;1242;68380;-66
2023/11/15 02:05:38;;;;;;;3.20;2.20;;;;;;;7.66;100.00;96478.02;110200;1244;58960;-65
2023/11/15 02:08:09;;;;;;;2.60;2.00;;;;;;;7.64;100.00;96486.15;110494;1245;58873;-65
2023/11/15 02:10:41;;;;;;;3.20;2.00;;;;;;;7.63;100.00;96489.54;110257;1242;70423;-65
2023/11/15 02:13:28;;;;;;;2.60;2.00;;;;;;;7.61;100.00;96488.08;110487;1244;69111;-65
2023/11/15 02:16:02;;;;;;;3.00;2.30;;;;;;;7.60;100.00;96488.17;110470;1242;68727;-65
2023/11/15 02:18:34;;;;;;;2.80;2.00;;;;;;;7.58;100.00;96493.40;110160;1240;58943;-65
2023/11/15 02:21:05;;;;;;;4.40;2.00;;;;;;;7.55;100.00;96492.90;110206;1243;58969;-65
2023/11/15 02:23:43;;;;;;;2.80;1.80;;;;;;;7.51;100.00;96491.29;110474;1242;69851;-65
2023/11/15 02:26:13;;;;;;;4.30;2.10;;;;;;;7.50;100.00;96493.69;110508;1242;69154;-65
2023/11/15 02:28:43;;;;;;;3.30;1.90;;;;;;;7.47;100.00;96511.39;110378;1243;69283;-66
2023/11/15 02:31:14;;;;;;;3.70;2.30;;;;;;;7.45;100.00;96507.70;110440;1242;58889;-65
2023/11/15 02:33:44;;;;;;;;;;;;;;;7.43;100.00;96487.91;110194;1241;58909;-65
2023/11/15 02:36:14;;;;;;;4.40;2.40;;;;;;;7.39;100.00;96492.69;110484;1242;69554;-65
2023/11/15 02:38:46;;;;;;;3.20;2.20;;;;;;;7.35;100.00;96496.47;110473;1242;68350;-65
2023/11/15 02:41:18;;;;;;;3.00;2.40;;;;;;;7.32;100.00;96488.27;110368;1241;69278;-65
2023/11/15 02:43:55;;;;;;;3.60;2.30;;;;;;;7.26;100.00;96479.33;110425;1248;58871;-65
2023/11/15 02:46:25;;;;;;;3.60;2.60;;;;;;;7.19;100.00;96466.70;110440;1241;58902;-65
2023/11/15 02:48:58;;;;;;;2.80;2.10;;;;;;;7.14;100.00;96459.58;110399;1241;70643;-65
2023/11/15 02:51:31;;;;;;;3.30;2.00;;;;;;;7.11;100.00;96453.73;110396;1242;68482;-65
2023/11/15 02:54:04;;;;;;;3.40;2.00;;;;;;;7.10;100.00;96453.83;110165;1246;69744;-65
2023/11/15 02:56:35;;;;;;;3.20;2.10;;;;;;;7.05;100.00;96445.88;110196;1241;58944;-65
2023/11/15 02:59:07;;;;;;;5.90;2.40;;;;;;;7.01;100.00;96435.63;110181;1244;58880;-65
2023/11/15 03:01:51;;;;;;;5.10;2.20;;;;;;;6.99;100.00;96425.20;110184;1242;69938;-65
2023/11/15 03:04:27;;;;;;;3.30;1.90;;;;;;;6.97;100.00;96431.53;110167;1246;69265;-65
2023/11/15 03:06:59;;;;;;;3.00;1.90;;;;;;;6.94;100.00;96442.52;110144;1242;68879;-65
2023/11/15 03:09:31;;;;;;;4.10;2.00;;;;;;;6.92;100.00;96440.60;110172;1241;58993;-65
2023/11/15 03:12:03;;;;;;;2.80;1.90;;;;;;;6.90;100.00;96456.14;110167;1242;58850;-65
2023/11/15 03:14:40;;;;;;;3.10;2.20;;;;;;;6.90;100.00;96466.77;110172;1244;70467;-65
2023/11/15 03:17:17;;;;;;;2.60;1.60;;;;;;;6.88;100.00;96467.16;110182;1242;69278;-65
2023/11/15 03:19:50;;;;;;;2.50;1.70;;;;;;;6.91;100.00;96478.80;110147;1241;68737;-65
2023/11/15 03:22:23;;;;;;;3.30;1.90;;;;;;;6.93;100.00;96489.56;110169;1245;59324;-65
2023/11/15 03:24:55;;;;;;;3.50;1.80;;;;;;;6.93;100.00;96483.83;110123;1246;58894;-65
2023/11/15 03:27:29;;;;;;;4.40;2.10;;;;;;;6.92;100.00;96473.17;110165;1244;70451;-65
2023/11/15 03:30:05;;;;;;;3.30;1.80;;;;;;;6.87;100.00;96476.95;110177;1242;68724;-65
2023/11/15 03:32:45;;;;;;;3.30;1.80;;;;;;;6.84;100.00;96471.63;110151;1241;68120;-65
2023/11/15 03:35:22;;;;;;;3.50;1.80;;;;;;;6.81;100.00;96468.60;110155;1241;58947;-65
2023/11/15 03:37:54;;;;;;;2.90;1.70;;;;;;;6.80;100.00;96471.95;110142;1241;58856;-65
2023/11/15 03:40:24;;;;;;;2.60;1.50;;;;;;;6.79;100.00;96462.64;110218;1243;70595;-65
2023/11/15 03:42:55;;;;;;;3.50;1.90;;;;;;;6.77;100.00;96457.48;110228;1247;69810;-65
2023/11/15 03:45:27;;;;;;;1.90;1.50;;;;;;;6.75;100.00;96454.11;110169;1241;68578;-65
2023/11/15 03:48:00;;;;;;;1.80;1.60;;;;;;;6.72;100.00;96452.42;110151;1245;58898;-65
2023/11/15 03:50:31;;;;;;;3.50;1.50;;;;;;;6.72;100.00;96463.52;110177;1245;58846;-65
2023/11/15 03:53:03;;;;;;;1.70;1.50;;;;;;;6.71;100.00;96472.44;110207;1245;70137;-64
2023/11/15 03:55:35;;;;;;;2.90;1.50;;;;;;;6.69;100.00;96466.73;110240;1241;68432;-66
2023/11/15 03:58:08;;;;;;;2.40;1.70;;;;;;;6.67;100.00;96466.83;110197;1245;68599;-64
2023/11/15 04:00:38;;;;;;;;;;;;;;;6.65;100.00;96456.58;110151;1243;58914;-64
2023/11/15 04:03:08;;;;;;;2.10;1.40;;;;;;;6.64;100.00;96443.81;110207;1246;58882;-64
2023/11/15 04:05:38;;;;;;;;;;;;;;;6.62;100.00;96437.23;110167;1242;70854;-64
2023/11/15 04:08:09;;;;;;;;;;;;;;;6.61;100.00;96438.83;110206;1241;69276;-66
2023/11/15 04:10:39;;;;;;;1.50;1.30;;;;;;;6.61;100.00;96436.46;110212;1243;68533;-64
2023/11/15 04:13:09;;;;;;;2.70;1.70;;;;;;;6.60;100.00;96439.05;110163;1241;58950;-64
2023/11/15 04:15:41;;;;;;;2.30;1.50;;;;;;;6.61;100.00;96432.42;110192;1241;58886;-64
2023/11/15 04:18:13;;;;;;;3.30;1.60;;;;;;;6.60;100.00;96426.59;110198;1242;70073;-66
2023/11/15 04:20:43;;;;;;;2.10;1.50;;;;;;;6.60;100.00;96423.34;110233;1245;69473;-66
2023/11/15 04:23:14;;;;;;;1.80;1.50;;;;;;;6.60;100.00;96418.84;110171;1243;69869;-64
2023/11/15 04:25:45;;;;;;;3.70;1.80;;;;;;;6.59;100.00;96416.12;110154;1242;58927;-64
2023/11/15 04:28:15;;;;;;;3.60;1.60;;;;;;;6.60;100.00;96424.70;110140;1243;58881;-64
2023/11/15 04:30:45;;;;;;;3.70;1.70;;;;;;;6.58;100.00;96438.73;110174;1242;70459;-64
2023/11/15 04:33:15;;;;;;;;;;;;;;;6.59;100.00;96453.52;110193;1243;69277;-64
2023/11/15 04:35:45;;;;;;;2.80;1.80;;;;;;;6.59;100.00;96449.52;110167;1242;69782;-65
2023/11/15 04:38:17;;;;;;;3.70;1.60;;;;;;;6.60;100.00;96456.94;110155;1241;58887;-64
2023/11/15 04:40:47;;;;;;;2.20;1.30;;;;;;;6.59;100.00;96451.13;110136;1243;58834;-64
2023/11/15 04:43:18;;;;;;;2.40;1.40;;;;;;;6.59;100.00;96439.49;110161;1241;70730;-65
2023/11/15 04:45:48;;;;;;;1.60;1.50;;;;;;;6.59;100.00;96425.14;110167;1242;68296;-64
2023/11/15 04:48:19;;;;;;;4.00;1.70;;;;;;;6.59;100.00;96424.45;110143;1240;69311;-65
2023/11/15 04:50:50;;;;;;;1.50;1.20;;;;;;;6.59;100.00;96420.33;110141;1247;58914;-64
2023/11/15 04:53:19;;;;;;;2.40;1.50;;;;;;;6.58;100.00;96407.53;110186;1242;58899;-64
2023/11/15 04:55:50;;;;;;;2.40;1.30;;;;;;;6.56;100.00;96418.47;110505;1243;71082;-64
2023/11/15 04:58:21;;;;;;;3.20;1.50;;;;;;;6.56;100.00;96428.34;110333;1242;68739;-65
2023/11/15 05:00:51;;;;;;;3.00;1.50;;;;;;;6.55;100.00;96433.92;110280;1241;68827;-64
2023/11/15 05:03:21;;;;;;;;;;;;;;;6.55;100.00;96438.73;110412;1243;58937;-65
2023/11/15 05:05:52;;;;;;;2.70;1.50;;;;;;;6.54;100.00;96434.33;110419;1241;58881;-65
2023/11/15 05:08:21;;;;;;;;;;;;;;;6.56;100.00;96427.97;110418;1241;69540;-65
2023/11/15 05:10:51;;;;;;;2.10;1.60;;;;;;;6.56;100.00;96415.00;110524;1243;69246;-64
2023/11/15 05:13:21;;;;;;;4.00;2.70;;;;;;;6.57;100.00;96406.61;110317;1242;69297;-64
2023/11/15 05:15:52;;;;;;;3.20;2.30;;;;;;;6.56;100.00;96391.47;110350;1242;58833;-64
2023/11/15 05:18:21;;;;;;;;;;;;;;;6.54;100.00;96376.86;110457;1242;58867;-65
2023/11/15 05:20:51;;;;;;;2.70;2.30;;;;;;;6.51;100.00;96387.10;110330;1242;70414;-65
2023/11/15 05:23:21;;;;;;;4.80;3.10;;;;;;;6.51;100.00;96390.13;110366;1241;69525;-64
2023/11/15 05:25:51;;;;;;;4.60;3.20;;;;;;;6.49;100.00;96392.50;110397;1244;68512;-64
2023/11/15 05:28:20;;;;;;;4.30;3.60;;;;;;;6.49;100.00;96407.92;110321;1241;58932;-64
2023/11/15 05:30:49;;;;;;;5.20;4.10;;;;;;;6.49;100.00;96397.53;110342;1250;58882;-64
2023/11/15 05:33:19;;;;;;;4.10;3.50;;;;;;;6.47;100.00;96405.94;110325;1242;69819;-64
2023/11/15 05:35:49;;;;;;;4.70;4.20;;;;;;;6.47;100.00;96405.11;110356;1243;69873;-64
2023/11/15 05:38:19;;;;;;;4.80;4.10;;;;;;;6.44;100.00;96400.62;110349;1246;69907;-64
2023/11/15 05:40:49;;;;;;;5.10;4.00;;;;;;;6.43;100.00;96393.23;110337;1242;58942;-65
2023/11/15 05:43:20;;;;;;;5.80;3.40;;;;;;;6.44;100.00;96407.25;110309;1240;58876;-64
2023/11/15 05:45:49;;;;;;;3.90;3.10;;;;;;;6.45;100.00;96425.98;110387;1242;68997;-64
2023/11/15 05:48:18;;;;;;;4.50;3.90;;;;;;;6.46;100.00;96409.13;110426;1242;69808;-64
2023/11/15 05:50:48;;;;;;;5.20;3.50;;;;;;;6.47;100.00;96409.92;110342;1241;69900;-64
2023/11/15 05:53:19;;;;;;;5.50;3.40;;;;;;;6.47;100.00;96414.09;110354;1244;58864;-64
2023/11/15 05:55:49;;;;;;;4.90;3.60;;;;;;;6.49;100.00;96423.67;110328;1242;58865;-64
2023/11/15 05:58:18;;;;;;;6.00;3.70;;;;;;;6.49;100.00;96434.17;110241;1242;70421;-64
2023/11/15 06:00:49;;;;;;;4.40;3.20;;;;;;;6.51;100.00;96439.09;110287;1244;69197;-63
2023/11/15 06:03:18;;;;;;;3.80;2.50;;;;;;;6.50;100.00;96454.03;110362;1242;69288;-64
2023/11/15 06:05:48;;;;;;;4.90;3.60;;;;;;;6.49;100.00;96457.05;110329;1241;58868;-64
2023/11/15 06:08:17;;;;;;;6.00;3.70;;;;;;;6.47;100.00;96456.84;110549;1242;58894;-64
2023/11/15 06:10:48;;;;;;;6.10;4.70;;;;;;;6.46;100.00;96463.33;110331;1242;69878;-64
2023/11/15 06:13:17;;;;;;;6.50;4.80;;;;;;;6.44;100.00;96463.47;110350;1243;69276;-65
2023/11/15 06:15:46;;;;;;;6.40;5.00;;;;;;;6.41;100.00;96474.40;110381;1250;69522;-65
2023/11/15 06:18:16;;;;;;;;;;;;;;;6.35;100.00;96472.39;110397;1242;58986;-64
2023/11/15 06:20:46;;;;;;;6.50;4.10;;;;;;;6.33;100.00;96466.28;110373;1242;58894;-65
2023/11/15 06:23:15;;;;;;;4.70;3.80;;;;;;;6.34;100.00;96462.80;110415;1242;69577;-64
2023/11/15 06:25:44;;;;;;;6.30;4.80;;;;;;;6.33;100.00;96454.73;110366;1242;70313;-67
2023/11/15 06:28:13;;;;;;;5.50;4.00;;;;;;;6.34;100.00;96449.11;110456;1250;69224;-65
2023/11/15 06:30:45;;;;;;;9.20;5.50;;;;;;;6.34;100.00;96462.09;110337;1244;58875;-66
2023/11/15 06:33:15;;;;;;;6.60;5.10;;;;;;;6.32;100.00;96455.11;110383;1243;58827;-64
2023/11/15 06:35:45;;;;;;;6.60;5.00;;;;;;;6.30;100.00;96430.52;110361;1241;71612;-65
2023/11/15 06:38:15;;;;;;;6.40;4.30;;;;;;;6.32;100.00;96420.85;110527;1242;69472;-65
2023/11/15 06:40:44;;;;;;;5.00;4.00;;;;;;;6.38;100.00;96411.58;110456;1244;69261;-64
2023/11/15 06:43:14;;;;;;;5.10;3.90;;;;;;;6.43;100.00;96403.98;110410;1243;58924;-65
2023/11/15 06:45:43;;;;;;;5.20;4.00;;;;;;;6.47;100.00;96400.25;110419;1245;58828;-65
2023/11/15 06:48:12;;;;;;;4.60;3.70;;;;;;;6.50;100.00;96415.60;110360;1243;69986;-65
2023/11/15 06:50:42;;;;;;;4.30;3.30;;;;;;;6.56;100.00;96412.95;110376;1242;69128;-65
2023/11/15 06:53:13;;;;;;;5.10;3.70;;;;;;;6.60;100.00;96414.48;110272;1242;69300;-65
2023/11/15 06:55:44;;;;;;;3.90;3.20;;;;;;;6.66;100.00;96434.22;110413;1242;59004;-65
2023/11/15 06:58:16;;;;;;;4.10;3.60;;;;;;;6.70;100.00;96441.67;110406;1242;58891;-67
2023/11/15 07:00:48;;;;;;;4.30;3.30;;;;;;;6.75;100.00;96435.94;110159;1240;70620;-64
2023/11/15 07:03:18;;;;;;;3.80;2.70;;;;;;;6.79;100.00;96442.04;110350;1241;69264;-65
2023/11/15 07:05:48;;;;;;;;;;;;;;;6.84;100.00;96434.61;110287;1242;68540;-65
2023/11/15 07:08:21;;;;;;;4.40;3.00;;;;;;;6.90;100.00;96422.36;110274;1243;58906;-65
2023/11/15 07:10:54;;;;;;;4.40;3.30;;;;;;;6.98;100.00;96408.98;110321;1243;58878;-65
2023/11/15 07:13:24;;;;;;;4.80;3.60;;;;;;;7.06;100.00;96404.39;110317;1243;70639;-64
2023/11/15 07:15:53;;;;;;;6.50;4.40;;;;;;;7.11;100.00;96421.02;110337;1243;69910;-64
2023/11/15 07:18:23;;;;;;;6.40;4.70;;;;;;;7.12;100.00;96419.34;110271;1242;69245;-64
2023/11/15 07:20:56;;;;;;;7.80;5.90;;;;;;;7.14;100.00;96419.88;110310;1242;58948;-65
2023/11/15 07:23:28;;;;;;;9.10;6.60;;;;;;;7.17;100.00;96422.33;110344;1242;58857;-64
2023/11/15 07:25:59;;;;;;;7.20;5.60;;;;;;;7.20;100.00;96440.27;110465;1248;70433;-64
2023/11/15 07:28:28;;;;;;;7.10;5.70;;;;;;;7.15;100.00;96444.27;110377;1241;68337;-63
2023/11/15 07:30:58;;;;;;;7.40;5.40;;;;;;;7.16;100.00;96448.34;110319;1250;69942;-64
2023/11/15 07:33:27;;;;;;;;;;;;;;;7.12;100.00;96455.86;110402;1242;58876;-64
2023/11/15 07:35:57;;;;;;;5.50;4.30;;;;;;;7.16;100.00;96455.80;110463;1243;58854;-64
2023/11/15 07:38:26;;;;;;;5.30;4.30;;;;;;;7.15;100.00;96448.38;110360;1242;69343;-64
2023/11/15 07:40:55;;;;;;;8.80;6.40;;;;;;;7.22;100.00;96450.86;110351;1242;69823;-64
2023/11/15 07:43:25;;;;;;;7.60;5.50;;;;;;;7.25;100.00;96440.96;110290;1242;69968;-64
2023/11/15 07:45:54;;;;;;;7.00;5.30;;;;;;;7.26;100.00;96437.08;110339;1244;58792;-65
2023/11/15 07:48:25;;;;;;;11.20;6.90;;;;;;;7.26;100.00;96446.73;110329;1241;58870;-65
2023/11/15 07:50:56;;;;;;;10.30;7.30;;;;;;;7.24;100.00;96475.14;110339;1242;71191;-65
2023/11/15 07:53:25;;;;;;;9.50;6.60;;;;;;;7.26;100.00;96482.94;110292;1243;69269;-65
2023/11/15 07:55:55;;;;;;;10.60;5.90;;;;;;;7.35;100.00;96474.52;110128;1245;69340;-65
2023/11/15 07:58:26;;;;;;;8.60;5.40;;;;;;;7.39;100.00;96487.34;110143;1245;58953;-65
2023/11/15 08:00:56;;;;;;;9.10;5.30;;;;;;;7.42;100.00;96488.00;110174;1246;58838;-65
2023/11/15 08:03:28;;;;;;;8.40;6.00;;;;;;;7.42;100.00;96478.98;110160;1245;70989;-65
2023/11/15 08:05:58;;;;;;;8.20;5.60;;;;;;;7.44;100.00;96462.94;110129;1242;69312;-65
2023/11/15 08:08:28;;;;;;;9.80;6.10;;;;;;;7.45;100.00;96455.70;110160;1245;69556;-65
2023/11/15 08:10:56;;;;;;;7.00;5.10;;;;;;;7.49;100.00;96452.27;110118;1245;58947;-65
2023/11/15 08:13:26;;;;;;;9.20;5.10;;;;;;;7.53;100.00;96460.31;110094;1248;58879;-65
2023/11/15 08:15:58;;;;;;;6.50;5.20;;;;;;;7.50;100.00;96465.23;110140;1243;71169;-66
2023/11/15 08:18:27;;;;;;;6.30;4.90;;;;;;;7.56;100.00;96464.20;110138;1245;69844;-65
2023/11/15 08:20:57;;;;;;;6.30;4.70;;;;;;;7.60;100.00;96466.73;110121;1241;69960;-65
2023/11/15 08:23:26;;;;;;;5.50;3.50;;;;;;;7.60;100.00;96475.55;110106;1245;58898;-65
2023/11/15 08:26:01;;;;;;;4.70;3.40;;;;;;;7.61;100.00;96483.80;110091;1245;58815;-66
2023/11/15 08:28:30;;;;;;;3.70;3.00;;;;;;;7.61;100.00;96482.36;110117;1242;71159;-66
2023/11/15 08:31:00;;;;;;;4.40;2.80;;;;;;;7.53;100.00;96483.51;110098;1245;69750;-65
2023/11/15 08:33:29;;;;;;;4.40;2.40;;;;;;;7.54;100.00;96490.38;110155;1241;68487;-66
2023/11/15 08:35:59;;;;;;;2.10;1.80;;;;;;;7.53;100.00;96505.20;110132;1241;58870;-66
2023/11/15 08:38:28;;;;;;;3.20;2.10;;;;;;;7.48;100.00;96501.44;110144;1245;58913;-66
2023/11/15 08:40:58;;;;;;;3.30;2.50;;;;;;;7.45;100.00;96505.62;110147;1245;70570;-65
2023/11/15 08:43:27;;;;;;;2.40;2.00;;;;;;;7.47;100.00;96500.84;110106;1243;69217;-65
2023/11/15 08:45:57;;;;;;;4.50;2.30;;;;;;;7.38;100.00;96507.22;110154;1245;68332;-65
2023/11/15 08:48:27;;;;;;;3.50;2.80;;;;;;;7.41;100.00;96498.86;110146;1244;58953;-65
2023/11/15 08:50:56;;;;;;;4.00;2.60;;;;;;;7.43;100.00;96486.88;110154;1246;58831;-65
2023/11/15 08:53:27;;;;;;;3.40;2.70;;;;;;;7.45;100.00;96474.48;110161;1246;70520;-65
2023/11/15 08:55:57;;;;;;;5.10;2.70;;;;;;;7.55;100.00;96485.13;110149;1244;69118;-66
2023/11/15 08:58:31;;;;;;;4.80;2.50;;;;;;;7.73;100.00;96480.31;110074;1245;70171;-66
2023/11/15 09:01:03;;;;;;;3.10;2.80;;;;;;;7.88;100.00;96477.23;110135;1241;58916;-66
2023/11/15 09:03:32;;;;;;;3.80;2.10;;;;;;;8.04;100.00;96462.97;110142;1244;58879;-68
2023/11/15 09:06:01;;;;;;;2.80;2.30;;;;;;;8.25;100.00;96473.66;110202;1246;71148;-66
2023/11/15 09:08:31;;;;;;;4.70;2.10;;;;;;;8.35;100.00;96481.20;110156;1251;69111;-66
2023/11/15 09:11:00;;;;;;;2.40;2.00;;;;;;;8.48;100.00;96482.63;110208;1244;69295;-66
2023/11/15 09:13:33;;;;;;;3.20;2.10;;;;;;;8.50;100.00;96479.54;110150;1245;58954;-66
2023/11/15 09:16:02;;;;;;;3.00;2.00;;;;;;;8.41;100.00;96468.63;110144;1245;58849;-66
2023/11/15 09:18:32;;;;;;;;;;;;;;;8.38;100.00;96451.54;110183;1244;70823;-66
2023/11/15 09:21:03;;;;;;;4.20;2.90;;;;;;;8.48;100.00;96461.16;110124;1245;68693;-66
2023/11/15 09:23:32;;;;;;;5.40;3.20;;;;;;;8.53;100.00;96484.65;110011;1245;69325;-66
2023/11/15 09:26:02;;;;;;;7.10;4.50;;;;;;;8.50;100.00;96482.34;109992;1244;58825;-66
2023/11/15 09:28:33;;;;;;;;;;;;;;;8.56;100.00;96463.05;110020;1246;58936;-66
2023/11/15 09:31:05;;;;;;;7.00;3.90;;;;;;;8.51;100.00;96444.20;109849;1246;70532;-66
2023/11/15 09:33:35;;;;;;;6.10;3.30;;;;;;;8.47;100.00;96441.23;109815;1244;68245;-66
2023/11/15 09:36:07;;;;;;;5.60;3.40;;;;;;;8.57;100.00;96451.55;109986;1245;69315;-66
2023/11/15 09:38:39;;;;;;;5.60;3.30;;;;;;;8.53;100.00;96453.10;110135;1244;58870;-66
2023/11/15 09:41:12;;;;;;;3.20;2.90;;;;;;;8.50;100.00;96427.63;110128;1241;58884;-66
2023/11/15 09:43:44;;;;;;;5.10;3.70;;;;;;;8.51;100.00;96455.67;110100;1245;71289;-65
2023/11/15 09:46:13;;;;;;;5.90;3.80;;;;;;;8.61;100.00;96475.39;110072;1245;69676;-66
2023/11/15 09:48:43;;;;;;;7.00;4.10;;;;;;;8.71;100.00;96452.16;110100;1245;69378;-66
2023/11/15 09:51:24;;;;;;;4.50;3.10;;;;;;;8.79;100.00;96445.83;110099;1242;58889;-65
2023/11/15 09:53:56;;;;;;;8.00;4.60;;;;;;;8.82;100.00;96431.80;110135;1245;58832;-65
2023/11/15 09:56:42;;;;;;;6.10;4.10;;;;;;;8.97;100.00;96426.77;110158;1244;70677;-66
2023/11/15 09:59:12;;;;;;;6.10;4.20;;;;;;;8.97;100.00;96433.19;110132;1242;68236;-65
2023/11/15 10:01:46;;;;;;;5.50;3.60;;;;;;;9.03;100.00;96436.02;110153;1243;68765;-64
2023/11/15 10:04:29;;;;;;;6.60;4.00;;;;;;;8.96;100.00;96451.91;110142;1245;58961;-65
2023/11/15 10:06:58;;;;;;;5.00;3.60;;;;;;;8.83;100.00;96448.78;110157;1241;58931;-65
2023/11/15 10:09:39;;;;;;;5.20;3.60;;;;;;;8.92;100.00;96443.16;110130;1246;71114;-65
2023/11/15 10:12:10;;;;;;;6.10;3.70;;;;;;;9.37;100.00;96440.02;110122;1241;69171;-65
2023/11/15 10:14:54;;;;;;;5.60;2.90;;;;;;;9.54;100.00;96437.39;110141;1243;69844;-65
2023/11/15 10:17:42;;;;;;;4.30;3.30;;;;;;;9.66;100.00;96426.09;110144;1244;58942;-66
2023/11/15 10:20:25;;;;;;;5.10;3.60;;;;;;;9.98;100.00;96428.52;110130;1244;58941;-67
2023/11/15 10:22:55;;;;;;;7.40;3.20;;;;;;;10.04;100.00;96423.33;110236;1244;70568;-67
2023/11/15 10:25:25;;;;;;;10.50;3.60;;;;;;;10.08;100.00;96421.28;110177;1242;68562;-65
2023/11/15 10:28:06;;;;;;;4.00;2.60;;;;;;;9.88;100.00;96428.20;109865;1241;67575;-65
2023/11/15 10:30:36;;;;;;;4.10;2.40;;;;;;;9.56;100.00;96433.67;110179;1242;58877;-64
2023/11/15 10:33:07;;;;;;;3.80;2.70;;;;;;;9.20;100.00;96435.46;110263;1244;58869;-65
2023/11/15 10:35:38;;;;;;;3.80;2.80;;;;;;;9.16;100.00;96437.90;110218;1246;71632;-66
2023/11/15 10:38:14;;;;;;;3.90;2.70;;;;;;;9.10;100.00;96433.50;110184;1241;69269;-67
2023/11/15 10:40:49;;;;;;;3.70;2.90;;;;;;;9.08;100.00;96428.33;110189;1243;69854;-67
2023/11/15 10:43:19;;;;;;;5.70;3.60;;;;;;;9.17;100.00;96424.63;110116;1245;58905;-67
2023/11/15 10:45:52;;;;;;;4.80;3.10;;;;;;;9.20;100.00;96422.64;110216;1245;58952;-68
2023/11/15 10:48:25;;;;;;;6.00;3.80;;;;;;;9.11;100.00;96424.37;110185;1244;70516;-67
2023/11/15 10:50:57;;;;;;;3.90;3.20;;;;;;;9.20;100.00;96423.49;110233;1243;68500;-65
2023/11/15 10:53:30;;;;;;;4.30;3.10;;;;;;;9.30;100.00;96424.56;110211;1244;70307;-66
2023/11/15 10:56:00;;;;;;;5.00;3.30;;;;;;;9.34;100.00;96424.45;110182;1245;58956;-66
2023/11/15 10:58:30;;;;;;;4.80;3.20;;;;;;;9.36;100.00;96434.02;109715;1245;621464;-67
2023/11/15 11:01:01;;;;;;;4.20;2.80;;;;;;;9.37;100.00;96438.25;110173;1242;71157;-65
2023/11/15 11:03:31;;;;;;;4.00;2.90;;;;;;;9.30;100.00;96442.13;110115;1241;69326;-65
2023/11/15 11:06:05;;;;;;;;;;;;;;;9.28;100.00;96438.29;110140;1241;68623;-65
2023/11/15 11:09:21;;;;;;;3.60;2.60;;;;;;;9.08;100.00;96431.99;110117;1243;58934;-67
2023/11/15 11:11:53;;;;;;;4.10;2.70;;;;;;;9.04;100.00;96431.59;110133;1244;58899;-67
2023/11/15 11:14:30;;;;;;;3.70;2.60;;;;;;;9.05;100.00;96432.23;110121;1244;71356;-65
2023/11/15 11:17:02;;;;;;;2.90;2.50;;;;;;;9.07;100.00;96436.71;110183;1244;68154;-65
2023/11/15 11:19:41;;;;;;;3.80;3.40;;;;;;;8.94;100.00;96444.55;110147;1241;69304;-65
2023/11/15 11:22:12;;;;;;;5.10;3.40;;;;;;;8.80;100.00;96457.20;110152;1244;58890;-65
2023/11/15 11:25:07;;;;;;;4.70;3.00;;;;;;;8.93;100.00;96463.25;110174;1244;58822;-65
2023/11/15 11:27:54;;;;;;;5.50;3.10;;;;;;;8.87;100.00;96463.58;110192;1241;70687;-66
2023/11/15 11:30:23;;;;;;;4.10;3.40;;;;;;;8.76;100.00;96457.34;110186;1240;68510;-65
2023/11/15 11:33:15;;;;;;;4.10;3.10;;;;;;;8.73;100.00;96459.45;110241;1241;69843;-67
2023/11/15 11:35:48;;;;;;;3.50;2.80;;;;;;;8.62;100.00;96468.88;110250;1245;58896;-65
2023/11/15 11:38:43;;;;;;;4.20;2.80;;;;;;;8.60;100.00;96476.33;110181;1243;58928;-65
2023/11/15 11:41:13;;;;;;;4.00;3.00;;;;;;;8.70;100.00;96465.23;110265;1242;70647;-67
2023/11/15 11:43:42;;;;;;;2.90;2.60;;;;;;;8.72;100.00;96472.92;110204;1242;68783;-66
2023/11/15 11:46:13;;;;;;;3.90;2.80;;;;;;;8.79;100.00;96470.15;110254;1242;69106;-66
2023/11/15 11:48:43;;;;;;;3.10;2.80;;;;;;;8.84;100.00;96467.63;110315;1241;58922;-66